sensor_id;sensor_type;location;lat;lon;timestamp;P1;durP1;ratioP1;P2;durP2;ratioP2
75506;SDS011;64086;43.220;27.878;2023-03-12T00:00:29;14.18;;;9.38;;
75506;SDS011;64086;43.220;27.878;2023-03-12T00:02:55;11.13;;;7.00;;
75506;SDS011;64086;43.220;27.878;2023-03-12T00:05:21;17.13;;;9.95;;
75506;SDS011;64086;43.220;27.878;2023-03-12T00:07:46;15.23;;;10.48;;
75506;SDS011;64086;43.220;27.878;2023-03-12T00:10:12;12.50;;;9.82;;
75506;SDS011;64086;43.220;27.878;2023-03-12T00:12:38;12.05;;;7.85;;
75506;SDS011;64086;43.220;27.878;2023-03-12T00:15:04;12.52;;;7.13;;
75506;SDS011;64086;43.220;27.878;2023-03-12T00:17:30;12.95;;;10.40;;
75506;SDS011;64086;43.220;27.878;2023-03-12T00:19:55;13.10;;;8.48;;
75506;SDS011;64086;43.220;27.878;2023-03-12T00:22:21;9.95;;;7.15;;
75506;SDS011;64086;43.220;27.878;2023-03-12T00:24:53;7.43;;;4.35;;
75506;SDS011;64086;43.220;27.878;2023-03-12T00:27:20;7.50;;;2.45;;
75506;SDS011;64086;43.220;27.878;2023-03-12T00:29:46;8.10;;;1.90;;
75506;SDS011;64086;43.220;27.878;2023-03-12T00:32:11;4.75;;;2.10;;
75506;SDS011;64086;43.220;27.878;2023-03-12T00:34:37;10.40;;;2.42;;
75506;SDS011;64086;43.220;27.878;2023-03-12T00:37:02;9.23;;;3.67;;
75506;SDS011;64086;43.220;27.878;2023-03-12T00:39:28;9.50;;;3.45;;
75506;SDS011;64086;43.220;27.878;2023-03-12T00:41:53;5.03;;;2.30;;
75506;SDS011;64086;43.220;27.878;2023-03-12T00:44:19;6.05;;;2.10;;
75506;SDS011;64086;43.220;27.878;2023-03-12T00:46:44;4.18;;;1.55;;
75506;SDS011;64086;43.220;27.878;2023-03-12T00:49:09;8.32;;;1.73;;
75506;SDS011;64086;43.220;27.878;2023-03-12T00:51:36;4.00;;;1.40;;
75506;SDS011;64086;43.220;27.878;2023-03-12T00:54:02;8.55;;;1.50;;
75506;SDS011;64086;43.220;27.878;2023-03-12T00:56:28;4.88;;;1.65;;
75506;SDS011;64086;43.220;27.878;2023-03-12T00:58:53;6.53;;;1.70;;
75506;SDS011;64086;43.220;27.878;2023-03-12T01:01:18;3.53;;;1.52;;
75506;SDS011;64086;43.220;27.878;2023-03-12T01:03:44;11.45;;;1.80;;
75506;SDS011;64086;43.220;27.878;2023-03-12T01:06:10;4.82;;;1.60;;
75506;SDS011;64086;43.220;27.878;2023-03-12T01:08:36;7.25;;;2.00;;
75506;SDS011;64086;43.220;27.878;2023-03-12T01:11:02;2.60;;;1.25;;
75506;SDS011;64086;43.220;27.878;2023-03-12T01:13:28;6.75;;;1.60;;
75506;SDS011;64086;43.220;27.878;2023-03-12T01:15:53;5.20;;;1.83;;
75506;SDS011;64086;43.220;27.878;2023-03-12T01:18:19;5.28;;;1.60;;
75506;SDS011;64086;43.220;27.878;2023-03-12T01:20:45;5.78;;;1.80;;
75506;SDS011;64086;43.220;27.878;2023-03-12T01:23:11;6.22;;;1.73;;
75506;SDS011;64086;43.220;27.878;2023-03-12T01:25:36;7.13;;;1.98;;
75506;SDS011;64086;43.220;27.878;2023-03-12T01:28:02;6.53;;;1.70;;
75506;SDS011;64086;43.220;27.878;2023-03-12T01:30:28;4.53;;;1.60;;
75506;SDS011;64086;43.220;27.878;2023-03-12T01:32:53;4.55;;;1.70;;
75506;SDS011;64086;43.220;27.878;2023-03-12T01:35:19;4.22;;;1.55;;
75506;SDS011;64086;43.220;27.878;2023-03-12T01:37:45;4.97;;;1.80;;
75506;SDS011;64086;43.220;27.878;2023-03-12T01:40:17;5.00;;;1.80;;
75506;SDS011;64086;43.220;27.878;2023-03-12T01:42:51;3.72;;;1.92;;
75506;SDS011;64086;43.220;27.878;2023-03-12T01:48:20;4.68;;;1.70;;
75506;SDS011;64086;43.220;27.878;2023-03-12T01:50:45;3.88;;;1.80;;
75506;SDS011;64086;43.220;27.878;2023-03-12T01:53:11;3.50;;;1.65;;
75506;SDS011;64086;43.220;27.878;2023-03-12T01:55:37;2.92;;;1.77;;
75506;SDS011;64086;43.220;27.878;2023-03-12T01:58:02;4.93;;;1.88;;
75506;SDS011;64086;43.220;27.878;2023-03-12T02:00:28;8.63;;;3.72;;
75506;SDS011;64086;43.220;27.878;2023-03-12T02:02:55;4.45;;;2.38;;
75506;SDS011;64086;43.220;27.878;2023-03-12T02:05:40;6.10;;;2.20;;
75506;SDS011;64086;43.220;27.878;2023-03-12T02:08:26;5.72;;;2.55;;
75506;SDS011;64086;43.220;27.878;2023-03-12T02:10:52;5.18;;;2.30;;
75506;SDS011;64086;43.220;27.878;2023-03-12T02:13:18;5.78;;;2.53;;
75506;SDS011;64086;43.220;27.878;2023-03-12T02:15:43;5.30;;;2.90;;
75506;SDS011;64086;43.220;27.878;2023-03-12T02:18:10;6.75;;;2.67;;
75506;SDS011;64086;43.220;27.878;2023-03-12T02:20:44;7.05;;;2.70;;
75506;SDS011;64086;43.220;27.878;2023-03-12T02:23:13;5.13;;;3.03;;
75506;SDS011;64086;43.220;27.878;2023-03-12T02:25:41;6.88;;;2.67;;
75506;SDS011;64086;43.220;27.878;2023-03-12T02:28:12;4.40;;;2.70;;
75506;SDS011;64086;43.220;27.878;2023-03-12T02:30:39;6.72;;;2.72;;
75506;SDS011;64086;43.220;27.878;2023-03-12T02:33:07;5.80;;;2.58;;
75506;SDS011;64086;43.220;27.878;2023-03-12T02:35:34;4.50;;;2.50;;
75506;SDS011;64086;43.220;27.878;2023-03-12T02:38:00;4.45;;;2.80;;
75506;SDS011;64086;43.220;27.878;2023-03-12T02:40:38;6.05;;;2.83;;
75506;SDS011;64086;43.220;27.878;2023-03-12T02:43:06;6.15;;;3.13;;
75506;SDS011;64086;43.220;27.878;2023-03-12T02:45:34;5.13;;;3.50;;
75506;SDS011;64086;43.220;27.878;2023-03-12T02:48:00;5.43;;;3.17;;
75506;SDS011;64086;43.220;27.878;2023-03-12T02:50:26;6.18;;;3.10;;
75506;SDS011;64086;43.220;27.878;2023-03-12T02:52:52;6.22;;;2.90;;
75506;SDS011;64086;43.220;27.878;2023-03-12T02:55:17;4.63;;;2.90;;
75506;SDS011;64086;43.220;27.878;2023-03-12T02:57:43;6.70;;;2.95;;
75506;SDS011;64086;43.220;27.878;2023-03-12T03:00:08;5.45;;;3.38;;
75506;SDS011;64086;43.220;27.878;2023-03-12T03:02:38;5.43;;;3.15;;
75506;SDS011;64086;43.220;27.878;2023-03-12T03:05:05;7.03;;;3.17;;
75506;SDS011;64086;43.220;27.878;2023-03-12T03:07:31;6.28;;;3.25;;
75506;SDS011;64086;43.220;27.878;2023-03-12T03:09:56;4.32;;;2.75;;
75506;SDS011;64086;43.220;27.878;2023-03-12T03:12:28;5.57;;;2.85;;
75506;SDS011;64086;43.220;27.878;2023-03-12T03:14:54;7.28;;;3.20;;
75506;SDS011;64086;43.220;27.878;2023-03-12T03:17:19;6.03;;;3.55;;
75506;SDS011;64086;43.220;27.878;2023-03-12T03:19:47;4.95;;;3.10;;
75506;SDS011;64086;43.220;27.878;2023-03-12T03:22:13;7.72;;;2.90;;
75506;SDS011;64086;43.220;27.878;2023-03-12T03:24:38;6.20;;;2.90;;
75506;SDS011;64086;43.220;27.878;2023-03-12T03:27:04;6.70;;;3.22;;
75506;SDS011;64086;43.220;27.878;2023-03-12T03:29:29;7.15;;;3.08;;
75506;SDS011;64086;43.220;27.878;2023-03-12T03:31:54;5.38;;;3.13;;
75506;SDS011;64086;43.220;27.878;2023-03-12T03:34:20;4.55;;;3.10;;
75506;SDS011;64086;43.220;27.878;2023-03-12T03:36:45;5.25;;;3.42;;
75506;SDS011;64086;43.220;27.878;2023-03-12T03:39:11;5.72;;;3.65;;
75506;SDS011;64086;43.220;27.878;2023-03-12T03:41:36;6.68;;;3.65;;
75506;SDS011;64086;43.220;27.878;2023-03-12T03:44:02;6.78;;;3.50;;
75506;SDS011;64086;43.220;27.878;2023-03-12T03:46:29;4.85;;;3.08;;
75506;SDS011;64086;43.220;27.878;2023-03-12T03:48:54;6.47;;;3.45;;
75506;SDS011;64086;43.220;27.878;2023-03-12T03:51:20;5.68;;;3.30;;
75506;SDS011;64086;43.220;27.878;2023-03-12T03:53:45;5.82;;;3.28;;
75506;SDS011;64086;43.220;27.878;2023-03-12T03:56:13;6.28;;;3.20;;
75506;SDS011;64086;43.220;27.878;2023-03-12T03:58:39;5.15;;;3.17;;
75506;SDS011;64086;43.220;27.878;2023-03-12T04:01:05;5.05;;;3.13;;
75506;SDS011;64086;43.220;27.878;2023-03-12T04:03:31;6.68;;;3.13;;
75506;SDS011;64086;43.220;27.878;2023-03-12T04:06:01;5.35;;;3.22;;
75506;SDS011;64086;43.220;27.878;2023-03-12T04:08:28;7.45;;;3.38;;
75506;SDS011;64086;43.220;27.878;2023-03-12T04:10:54;5.57;;;3.30;;
75506;SDS011;64086;43.220;27.878;2023-03-12T04:13:20;6.57;;;3.25;;
75506;SDS011;64086;43.220;27.878;2023-03-12T04:15:50;6.90;;;3.92;;
75506;SDS011;64086;43.220;27.878;2023-03-12T04:18:16;5.03;;;3.67;;
75506;SDS011;64086;43.220;27.878;2023-03-12T04:20:43;6.15;;;3.50;;
75506;SDS011;64086;43.220;27.878;2023-03-12T04:23:08;7.20;;;3.53;;
75506;SDS011;64086;43.220;27.878;2023-03-12T04:25:34;7.10;;;3.65;;
75506;SDS011;64086;43.220;27.878;2023-03-12T04:27:59;6.28;;;4.30;;
75506;SDS011;64086;43.220;27.878;2023-03-12T04:30:26;5.03;;;4.15;;
75506;SDS011;64086;43.220;27.878;2023-03-12T04:32:52;6.43;;;3.85;;
75506;SDS011;64086;43.220;27.878;2023-03-12T04:35:17;6.50;;;3.75;;
75506;SDS011;64086;43.220;27.878;2023-03-12T04:37:43;5.85;;;3.50;;
75506;SDS011;64086;43.220;27.878;2023-03-12T04:40:08;5.25;;;3.20;;
75506;SDS011;64086;43.220;27.878;2023-03-12T04:42:34;8.68;;;3.47;;
75506;SDS011;64086;43.220;27.878;2023-03-12T04:45:00;9.00;;;4.40;;
75506;SDS011;64086;43.220;27.878;2023-03-12T04:47:26;8.02;;;3.95;;
75506;SDS011;64086;43.220;27.878;2023-03-12T04:49:51;6.70;;;3.40;;
75506;SDS011;64086;43.220;27.878;2023-03-12T04:52:17;7.53;;;3.97;;
75506;SDS011;64086;43.220;27.878;2023-03-12T04:54:43;9.52;;;4.50;;
75506;SDS011;64086;43.220;27.878;2023-03-12T04:57:08;8.18;;;4.85;;
75506;SDS011;64086;43.220;27.878;2023-03-12T04:59:34;7.88;;;3.70;;
75506;SDS011;64086;43.220;27.878;2023-03-12T05:02:00;9.18;;;3.38;;
75506;SDS011;64086;43.220;27.878;2023-03-12T05:04:25;7.65;;;3.65;;
75506;SDS011;64086;43.220;27.878;2023-03-12T05:06:51;6.03;;;3.40;;
75506;SDS011;64086;43.220;27.878;2023-03-12T05:09:16;8.10;;;3.60;;
75506;SDS011;64086;43.220;27.878;2023-03-12T05:11:41;6.35;;;3.22;;
75506;SDS011;64086;43.220;27.878;2023-03-12T05:14:08;8.02;;;3.30;;
75506;SDS011;64086;43.220;27.878;2023-03-12T05:16:35;6.50;;;3.75;;
75506;SDS011;64086;43.220;27.878;2023-03-12T05:19:00;5.30;;;3.33;;
75506;SDS011;64086;43.220;27.878;2023-03-12T05:21:26;8.85;;;4.40;;
75506;SDS011;64086;43.220;27.878;2023-03-12T05:23:52;9.50;;;5.45;;
75506;SDS011;64086;43.220;27.878;2023-03-12T05:26:22;13.23;;;5.85;;
75506;SDS011;64086;43.220;27.878;2023-03-12T05:28:49;8.68;;;5.50;;
75506;SDS011;64086;43.220;27.878;2023-03-12T05:31:15;10.18;;;4.45;;
75506;SDS011;64086;43.220;27.878;2023-03-12T05:33:40;7.88;;;3.80;;
75506;SDS011;64086;43.220;27.878;2023-03-12T05:36:06;5.85;;;3.80;;
75506;SDS011;64086;43.220;27.878;2023-03-12T05:38:32;8.00;;;3.70;;
75506;SDS011;64086;43.220;27.878;2023-03-12T05:40:58;8.45;;;4.10;;
75506;SDS011;64086;43.220;27.878;2023-03-12T05:43:24;6.82;;;3.63;;
75506;SDS011;64086;43.220;27.878;2023-03-12T05:45:50;6.20;;;3.67;;
75506;SDS011;64086;43.220;27.878;2023-03-12T05:48:16;8.10;;;4.18;;
75506;SDS011;64086;43.220;27.878;2023-03-12T05:50:42;6.10;;;3.47;;
75506;SDS011;64086;43.220;27.878;2023-03-12T05:53:07;10.20;;;4.32;;
75506;SDS011;64086;43.220;27.878;2023-03-12T05:55:34;7.47;;;3.55;;
75506;SDS011;64086;43.220;27.878;2023-03-12T05:58:01;4.53;;;3.80;;
75506;SDS011;64086;43.220;27.878;2023-03-12T06:00:27;5.45;;;3.20;;
75506;SDS011;64086;43.220;27.878;2023-03-12T06:02:52;6.68;;;3.90;;
75506;SDS011;64086;43.220;27.878;2023-03-12T06:05:17;6.65;;;3.58;;
75506;SDS011;64086;43.220;27.878;2023-03-12T06:07:43;8.30;;;3.88;;
75506;SDS011;64086;43.220;27.878;2023-03-12T06:10:08;6.47;;;3.42;;
75506;SDS011;64086;43.220;27.878;2023-03-12T06:12:34;5.63;;;3.53;;
75506;SDS011;64086;43.220;27.878;2023-03-12T06:15:00;4.78;;;3.20;;
75506;SDS011;64086;43.220;27.878;2023-03-12T06:17:27;6.90;;;3.40;;
75506;SDS011;64086;43.220;27.878;2023-03-12T06:19:53;5.35;;;3.22;;
75506;SDS011;64086;43.220;27.878;2023-03-12T06:22:19;5.85;;;2.92;;
75506;SDS011;64086;43.220;27.878;2023-03-12T06:24:44;5.20;;;3.50;;
75506;SDS011;64086;43.220;27.878;2023-03-12T06:27:14;6.30;;;3.28;;
75506;SDS011;64086;43.220;27.878;2023-03-12T06:29:40;4.32;;;3.22;;
75506;SDS011;64086;43.220;27.878;2023-03-12T06:32:06;5.78;;;3.15;;
75506;SDS011;64086;43.220;27.878;2023-03-12T06:34:32;4.10;;;3.00;;
75506;SDS011;64086;43.220;27.878;2023-03-12T06:36:57;8.10;;;3.85;;
75506;SDS011;64086;43.220;27.878;2023-03-12T06:39:23;7.57;;;4.25;;
75506;SDS011;64086;43.220;27.878;2023-03-12T06:41:48;6.35;;;3.40;;
75506;SDS011;64086;43.220;27.878;2023-03-12T06:44:14;5.15;;;3.30;;
75506;SDS011;64086;43.220;27.878;2023-03-12T06:46:40;4.20;;;3.10;;
75506;SDS011;64086;43.220;27.878;2023-03-12T06:49:05;7.28;;;3.40;;
75506;SDS011;64086;43.220;27.878;2023-03-12T06:51:31;4.93;;;3.00;;
75506;SDS011;64086;43.220;27.878;2023-03-12T06:53:57;7.72;;;3.50;;
75506;SDS011;64086;43.220;27.878;2023-03-12T06:56:24;4.40;;;2.97;;
75506;SDS011;64086;43.220;27.878;2023-03-12T06:58:50;4.85;;;3.28;;
75506;SDS011;64086;43.220;27.878;2023-03-12T07:01:15;4.85;;;3.42;;
75506;SDS011;64086;43.220;27.878;2023-03-12T07:03:41;7.47;;;3.50;;
75506;SDS011;64086;43.220;27.878;2023-03-12T07:06:16;6.53;;;3.75;;
75506;SDS011;64086;43.220;27.878;2023-03-12T07:08:43;3.30;;;3.00;;
75506;SDS011;64086;43.220;27.878;2023-03-12T07:11:09;4.45;;;3.55;;
75506;SDS011;64086;43.220;27.878;2023-03-12T07:13:35;4.47;;;3.50;;
75506;SDS011;64086;43.220;27.878;2023-03-12T07:16:01;5.25;;;3.50;;
75506;SDS011;64086;43.220;27.878;2023-03-12T07:18:26;6.10;;;3.30;;
75506;SDS011;64086;43.220;27.878;2023-03-12T07:20:52;7.43;;;3.65;;
75506;SDS011;64086;43.220;27.878;2023-03-12T07:23:18;5.88;;;3.60;;
75506;SDS011;64086;43.220;27.878;2023-03-12T07:25:43;6.57;;;3.20;;
75506;SDS011;64086;43.220;27.878;2023-03-12T07:28:09;5.10;;;3.13;;
75506;SDS011;64086;43.220;27.878;2023-03-12T07:30:36;5.53;;;3.20;;
75506;SDS011;64086;43.220;27.878;2023-03-12T07:33:05;5.13;;;3.78;;
75506;SDS011;64086;43.220;27.878;2023-03-12T07:35:35;6.32;;;3.55;;
75506;SDS011;64086;43.220;27.878;2023-03-12T07:38:05;6.03;;;3.40;;
75506;SDS011;64086;43.220;27.878;2023-03-12T07:40:30;5.07;;;3.47;;
75506;SDS011;64086;43.220;27.878;2023-03-12T07:42:56;6.90;;;3.42;;
75506;SDS011;64086;43.220;27.878;2023-03-12T07:45:22;4.47;;;3.60;;
75506;SDS011;64086;43.220;27.878;2023-03-12T07:47:47;4.15;;;3.50;;
75506;SDS011;64086;43.220;27.878;2023-03-12T07:50:13;5.45;;;3.17;;
75506;SDS011;64086;43.220;27.878;2023-03-12T07:52:39;4.10;;;2.60;;
75506;SDS011;64086;43.220;27.878;2023-03-12T07:55:04;6.13;;;3.15;;
75506;SDS011;64086;43.220;27.878;2023-03-12T07:57:31;5.97;;;3.40;;
75506;SDS011;64086;43.220;27.878;2023-03-12T07:59:56;4.45;;;3.08;;
75506;SDS011;64086;43.220;27.878;2023-03-12T08:02:22;5.35;;;3.20;;
75506;SDS011;64086;43.220;27.878;2023-03-12T08:04:47;8.57;;;3.90;;
75506;SDS011;64086;43.220;27.878;2023-03-12T08:07:13;5.63;;;3.15;;
75506;SDS011;64086;43.220;27.878;2023-03-12T08:09:39;5.45;;;4.03;;
75506;SDS011;64086;43.220;27.878;2023-03-12T08:12:05;6.93;;;3.13;;
75506;SDS011;64086;43.220;27.878;2023-03-12T08:14:31;6.45;;;3.15;;
75506;SDS011;64086;43.220;27.878;2023-03-12T08:16:57;4.68;;;2.70;;
75506;SDS011;64086;43.220;27.878;2023-03-12T08:19:23;5.20;;;3.08;;
75506;SDS011;64086;43.220;27.878;2023-03-12T08:21:49;6.10;;;2.90;;
75506;SDS011;64086;43.220;27.878;2023-03-12T08:24:17;4.97;;;2.97;;
75506;SDS011;64086;43.220;27.878;2023-03-12T08:26:43;4.30;;;3.03;;
75506;SDS011;64086;43.220;27.878;2023-03-12T08:29:08;6.90;;;3.03;;
75506;SDS011;64086;43.220;27.878;2023-03-12T08:31:34;7.15;;;3.17;;
75506;SDS011;64086;43.220;27.878;2023-03-12T08:33:59;5.55;;;3.10;;
75506;SDS011;64086;43.220;27.878;2023-03-12T08:36:25;7.38;;;3.03;;
75506;SDS011;64086;43.220;27.878;2023-03-12T08:38:50;4.13;;;2.80;;
75506;SDS011;64086;43.220;27.878;2023-03-12T08:41:15;5.93;;;3.13;;
75506;SDS011;64086;43.220;27.878;2023-03-12T08:43:41;5.70;;;2.85;;
75506;SDS011;64086;43.220;27.878;2023-03-12T08:46:06;6.38;;;2.63;;
75506;SDS011;64086;43.220;27.878;2023-03-12T08:48:33;8.15;;;2.97;;
75506;SDS011;64086;43.220;27.878;2023-03-12T08:50:59;7.25;;;3.15;;
75506;SDS011;64086;43.220;27.878;2023-03-12T08:53:28;4.90;;;2.72;;
75506;SDS011;64086;43.220;27.878;2023-03-12T08:55:55;5.25;;;2.90;;
75506;SDS011;64086;43.220;27.878;2023-03-12T08:58:21;9.07;;;3.17;;
75506;SDS011;64086;43.220;27.878;2023-03-12T09:00:48;7.32;;;3.33;;
75506;SDS011;64086;43.220;27.878;2023-03-12T09:03:14;6.72;;;2.92;;
75506;SDS011;64086;43.220;27.878;2023-03-12T09:05:41;5.47;;;2.97;;
75506;SDS011;64086;43.220;27.878;2023-03-12T09:08:07;5.95;;;3.10;;
75506;SDS011;64086;43.220;27.878;2023-03-12T09:10:33;5.72;;;2.83;;
75506;SDS011;64086;43.220;27.878;2023-03-12T09:12:58;6.07;;;3.17;;
75506;SDS011;64086;43.220;27.878;2023-03-12T09:15:24;4.30;;;3.10;;
75506;SDS011;64086;43.220;27.878;2023-03-12T09:17:50;5.65;;;3.15;;
75506;SDS011;64086;43.220;27.878;2023-03-12T09:20:15;5.50;;;3.20;;
75506;SDS011;64086;43.220;27.878;2023-03-12T09:22:41;5.18;;;3.22;;
75506;SDS011;64086;43.220;27.878;2023-03-12T09:25:08;4.70;;;3.17;;
75506;SDS011;64086;43.220;27.878;2023-03-12T09:27:38;4.20;;;3.15;;
75506;SDS011;64086;43.220;27.878;2023-03-12T09:30:05;5.05;;;3.35;;
75506;SDS011;64086;43.220;27.878;2023-03-12T09:32:32;5.00;;;3.45;;
75506;SDS011;64086;43.220;27.878;2023-03-12T09:34:57;4.32;;;3.33;;
75506;SDS011;64086;43.220;27.878;2023-03-12T09:37:23;9.10;;;3.50;;
75506;SDS011;64086;43.220;27.878;2023-03-12T09:39:49;4.90;;;2.78;;
75506;SDS011;64086;43.220;27.878;2023-03-12T09:42:20;3.97;;;2.97;;
75506;SDS011;64086;43.220;27.878;2023-03-12T09:44:48;6.10;;;3.15;;
75506;SDS011;64086;43.220;27.878;2023-03-12T09:47:33;4.75;;;3.00;;
75506;SDS011;64086;43.220;27.878;2023-03-12T09:50:07;4.40;;;2.70;;
75506;SDS011;64086;43.220;27.878;2023-03-12T09:52:50;4.40;;;2.60;;
75506;SDS011;64086;43.220;27.878;2023-03-12T09:55:18;6.30;;;2.97;;
75506;SDS011;64086;43.220;27.878;2023-03-12T09:57:46;4.40;;;2.90;;
75506;SDS011;64086;43.220;27.878;2023-03-12T10:00:22;4.88;;;3.47;;
75506;SDS011;64086;43.220;27.878;2023-03-12T10:07:57;5.20;;;3.30;;
75506;SDS011;64086;43.220;27.878;2023-03-12T10:10:51;5.38;;;3.30;;
75506;SDS011;64086;43.220;27.878;2023-03-12T10:13:28;5.07;;;3.17;;
75506;SDS011;64086;43.220;27.878;2023-03-12T10:26:42;5.47;;;3.17;;
75506;SDS011;64086;43.220;27.878;2023-03-12T10:29:26;4.55;;;3.20;;
75506;SDS011;64086;43.220;27.878;2023-03-12T10:32:01;5.68;;;3.05;;
75506;SDS011;64086;43.220;27.878;2023-03-12T10:36:58;4.88;;;3.22;;
75506;SDS011;64086;43.220;27.878;2023-03-12T10:39:29;5.32;;;3.30;;
75506;SDS011;64086;43.220;27.878;2023-03-12T10:41:54;6.00;;;3.70;;
75506;SDS011;64086;43.220;27.878;2023-03-12T10:44:22;5.70;;;3.80;;
75506;SDS011;64086;43.220;27.878;2023-03-12T10:49:40;4.25;;;3.35;;
75506;SDS011;64086;43.220;27.878;2023-03-12T10:52:13;4.88;;;3.53;;
75506;SDS011;64086;43.220;27.878;2023-03-12T10:54:41;4.95;;;3.30;;
75506;SDS011;64086;43.220;27.878;2023-03-12T10:57:09;4.22;;;3.05;;
75506;SDS011;64086;43.220;27.878;2023-03-12T10:59:39;5.05;;;3.65;;
75506;SDS011;64086;43.220;27.878;2023-03-12T11:02:32;4.35;;;3.55;;
75506;SDS011;64086;43.220;27.878;2023-03-12T11:04:59;5.20;;;3.40;;
75506;SDS011;64086;43.220;27.878;2023-03-12T11:07:30;6.07;;;3.30;;
75506;SDS011;64086;43.220;27.878;2023-03-12T11:10:11;5.22;;;3.10;;
75506;SDS011;64086;43.220;27.878;2023-03-12T11:12:39;3.90;;;3.15;;
75506;SDS011;64086;43.220;27.878;2023-03-12T11:15:18;5.22;;;3.35;;
75506;SDS011;64086;43.220;27.878;2023-03-12T11:17:45;6.18;;;3.00;;
75506;SDS011;64086;43.220;27.878;2023-03-12T11:20:44;4.75;;;3.33;;
75506;SDS011;64086;43.220;27.878;2023-03-12T11:23:16;4.28;;;3.28;;
75506;SDS011;64086;43.220;27.878;2023-03-12T11:25:55;5.10;;;2.83;;
75506;SDS011;64086;43.220;27.878;2023-03-12T11:28:46;4.50;;;3.10;;
75506;SDS011;64086;43.220;27.878;2023-03-12T11:31:20;6.68;;;3.10;;
75506;SDS011;64086;43.220;27.878;2023-03-12T11:33:47;5.53;;;2.97;;
75506;SDS011;64086;43.220;27.878;2023-03-12T11:39:00;4.07;;;3.10;;
75506;SDS011;64086;43.220;27.878;2023-03-12T11:44:10;4.45;;;3.50;;
75506;SDS011;64086;43.220;27.878;2023-03-12T11:49:36;5.57;;;3.25;;
75506;SDS011;64086;43.220;27.878;2023-03-12T11:54:55;6.13;;;3.40;;
75506;SDS011;64086;43.220;27.878;2023-03-12T12:00:41;4.18;;;2.85;;
75506;SDS011;64086;43.220;27.878;2023-03-12T12:17:43;6.10;;;3.15;;
75506;SDS011;64086;43.220;27.878;2023-03-12T12:20:20;5.45;;;3.30;;
75506;SDS011;64086;43.220;27.878;2023-03-12T12:23:00;6.97;;;3.45;;
75506;SDS011;64086;43.220;27.878;2023-03-12T12:36:16;4.63;;;3.13;;
75506;SDS011;64086;43.220;27.878;2023-03-12T12:41:27;6.00;;;3.25;;
75506;SDS011;64086;43.220;27.878;2023-03-12T12:43:58;5.47;;;3.70;;
75506;SDS011;64086;43.220;27.878;2023-03-12T12:46:29;5.70;;;4.40;;
75506;SDS011;64086;43.220;27.878;2023-03-12T12:49:40;9.52;;;6.97;;
75506;SDS011;64086;43.220;27.878;2023-03-12T12:51:57;9.15;;;6.60;;
75506;SDS011;64086;43.220;27.878;2023-03-12T12:54:27;5.78;;;4.13;;
75506;SDS011;64086;43.220;27.878;2023-03-12T12:59:39;5.32;;;4.00;;
75506;SDS011;64086;43.220;27.878;2023-03-12T13:02:30;5.40;;;3.65;;
75506;SDS011;64086;43.220;27.878;2023-03-12T13:04:58;5.13;;;3.60;;
75506;SDS011;64086;43.220;27.878;2023-03-12T13:09:50;5.53;;;3.33;;
75506;SDS011;64086;43.220;27.878;2023-03-12T13:14:57;6.85;;;3.35;;
75506;SDS011;64086;43.220;27.878;2023-03-12T13:17:33;6.80;;;4.40;;
75506;SDS011;64086;43.220;27.878;2023-03-12T13:20:09;6.53;;;5.05;;
75506;SDS011;64086;43.220;27.878;2023-03-12T13:28:00;6.93;;;3.28;;
75506;SDS011;64086;43.220;27.878;2023-03-12T13:30:47;6.90;;;4.00;;
75506;SDS011;64086;43.220;27.878;2023-03-12T13:33:15;4.53;;;3.03;;
75506;SDS011;64086;43.220;27.878;2023-03-12T13:35:47;5.90;;;3.67;;
75506;SDS011;64086;43.220;27.878;2023-03-12T13:38:34;5.32;;;3.95;;
75506;SDS011;64086;43.220;27.878;2023-03-12T13:41:04;4.93;;;3.08;;
75506;SDS011;64086;43.220;27.878;2023-03-12T13:43:32;4.55;;;2.97;;
75506;SDS011;64086;43.220;27.878;2023-03-12T13:48:47;7.18;;;4.15;;
75506;SDS011;64086;43.220;27.878;2023-03-12T13:51:15;6.32;;;4.03;;
75506;SDS011;64086;43.220;27.878;2023-03-12T13:53:45;8.35;;;5.25;;
75506;SDS011;64086;43.220;27.878;2023-03-12T13:56:13;8.18;;;5.78;;
75506;SDS011;64086;43.220;27.878;2023-03-12T14:01:31;8.90;;;5.60;;
75506;SDS011;64086;43.220;27.878;2023-03-12T14:04:04;6.60;;;4.80;;
75506;SDS011;64086;43.220;27.878;2023-03-12T14:06:33;6.75;;;3.65;;
75506;SDS011;64086;43.220;27.878;2023-03-12T14:09:18;6.10;;;3.80;;
75506;SDS011;64086;43.220;27.878;2023-03-12T14:15:19;5.53;;;3.72;;
75506;SDS011;64086;43.220;27.878;2023-03-12T14:17:43;4.97;;;3.40;;
75506;SDS011;64086;43.220;27.878;2023-03-12T14:20:16;5.18;;;3.40;;
75506;SDS011;64086;43.220;27.878;2023-03-12T14:22:43;7.45;;;5.03;;
75506;SDS011;64086;43.220;27.878;2023-03-12T14:27:40;11.13;;;5.80;;
75506;SDS011;64086;43.220;27.878;2023-03-12T14:32:44;6.50;;;4.20;;
75506;SDS011;64086;43.220;27.878;2023-03-12T14:40:35;6.13;;;3.58;;
75506;SDS011;64086;43.220;27.878;2023-03-12T14:43:20;10.50;;;6.07;;
75506;SDS011;64086;43.220;27.878;2023-03-12T14:45:48;6.60;;;4.13;;
75506;SDS011;64086;43.220;27.878;2023-03-12T14:48:15;5.93;;;4.22;;
75506;SDS011;64086;43.220;27.878;2023-03-12T14:50:45;7.88;;;4.63;;
75506;SDS011;64086;43.220;27.878;2023-03-12T14:53:57;4.78;;;3.65;;
75506;SDS011;64086;43.220;27.878;2023-03-12T14:58:48;6.43;;;3.88;;
75506;SDS011;64086;43.220;27.878;2023-03-12T15:01:17;5.35;;;2.80;;
75506;SDS011;64086;43.220;27.878;2023-03-12T15:03:54;5.65;;;2.85;;
75506;SDS011;64086;43.220;27.878;2023-03-12T15:06:58;5.78;;;4.22;;
75506;SDS011;64086;43.220;27.878;2023-03-12T15:09:19;7.67;;;3.80;;
75506;SDS011;64086;43.220;27.878;2023-03-12T15:11:53;7.10;;;4.82;;
75506;SDS011;64086;43.220;27.878;2023-03-12T15:14:21;4.65;;;3.30;;
75506;SDS011;64086;43.220;27.878;2023-03-12T15:16:47;5.35;;;3.95;;
75506;SDS011;64086;43.220;27.878;2023-03-12T15:19:13;8.10;;;4.10;;
75506;SDS011;64086;43.220;27.878;2023-03-12T15:21:41;5.95;;;3.95;;
75506;SDS011;64086;43.220;27.878;2023-03-12T15:24:08;6.95;;;4.10;;
75506;SDS011;64086;43.220;27.878;2023-03-12T15:26:37;7.60;;;4.32;;
75506;SDS011;64086;43.220;27.878;2023-03-12T15:29:24;5.43;;;3.42;;
75506;SDS011;64086;43.220;27.878;2023-03-12T15:31:54;5.80;;;3.70;;
75506;SDS011;64086;43.220;27.878;2023-03-12T15:34:33;6.65;;;3.20;;
75506;SDS011;64086;43.220;27.878;2023-03-12T15:37:22;6.95;;;4.10;;
75506;SDS011;64086;43.220;27.878;2023-03-12T15:39:56;5.25;;;3.33;;
75506;SDS011;64086;43.220;27.878;2023-03-12T15:42:24;5.55;;;3.35;;
75506;SDS011;64086;43.220;27.878;2023-03-12T15:44:50;6.00;;;4.45;;
75506;SDS011;64086;43.220;27.878;2023-03-12T15:47:19;8.40;;;5.30;;
75506;SDS011;64086;43.220;27.878;2023-03-12T15:50:09;5.57;;;3.85;;
75506;SDS011;64086;43.220;27.878;2023-03-12T15:52:59;6.35;;;4.40;;
75506;SDS011;64086;43.220;27.878;2023-03-12T15:55:59;7.80;;;3.83;;
75506;SDS011;64086;43.220;27.878;2023-03-12T16:01:05;5.53;;;3.85;;
75506;SDS011;64086;43.220;27.878;2023-03-12T16:03:36;5.25;;;4.40;;
75506;SDS011;64086;43.220;27.878;2023-03-12T16:06:02;5.65;;;3.60;;
75506;SDS011;64086;43.220;27.878;2023-03-12T16:08:39;5.97;;;3.80;;
75506;SDS011;64086;43.220;27.878;2023-03-12T16:11:11;6.80;;;4.00;;
75506;SDS011;64086;43.220;27.878;2023-03-12T16:16:06;5.82;;;4.22;;
75506;SDS011;64086;43.220;27.878;2023-03-12T16:18:33;7.53;;;4.72;;
75506;SDS011;64086;43.220;27.878;2023-03-12T16:20:58;5.95;;;3.83;;
75506;SDS011;64086;43.220;27.878;2023-03-12T16:23:24;6.20;;;4.35;;
75506;SDS011;64086;43.220;27.878;2023-03-12T16:25:50;8.30;;;6.40;;
75506;SDS011;64086;43.220;27.878;2023-03-12T16:28:17;8.27;;;5.13;;